sensor_id;sensor_type;location;lat;lon;timestamp;noise_LAeq;noise_LA_min;noise_LA_max;noise_LA01;noise_LA95
71805;Laerm;59654;52.216;5.616;2024-01-06T00:00:28;37.48;33.65;48.55;;
71805;Laerm;59654;52.216;5.616;2024-01-06T00:00:59;39.03;35.03;49.32;;
71805;Laerm;59654;52.216;5.616;2024-01-06T00:01:30;37.18;32.63;48.50;;
71805;Laerm;59654;52.216;5.616;2024-01-06T00:02:00;37.24;32.47;48.59;;
71805;Laerm;59654;52.216;5.616;2024-01-06T00:02:32;38.44;32.66;49.56;;
71805;Laerm;59654;52.216;5.616;2024-01-06T00:03:03;38.66;34.78;48.88;;
71805;Laerm;59654;52.216;5.616;2024-01-06T00:03:34;39.85;35.14;49.54;;
71805;Laerm;59654;52.216;5.616;2024-01-06T00:04:05;38.53;34.68;48.66;;
71805;Laerm;59654;52.216;5.616;2024-01-06T00:04:36;37.81;33.33;48.62;;
71805;Laerm;59654;52.216;5.616;2024-01-06T00:05:07;37.57;33.08;48.57;;
71805;Laerm;59654;52.216;5.616;2024-01-06T00:05:38;37.16;31.98;48.66;;
71805;Laerm;59654;52.216;5.616;2024-01-06T00:06:13;37.85;32.60;49.78;;
71805;Laerm;59654;52.216;5.616;2024-01-06T00:06:44;38.87;33.25;50.73;;
71805;Laerm;59654;52.216;5.616;2024-01-06T00:07:15;39.69;33.05;50.05;;
71805;Laerm;59654;52.216;5.616;2024-01-06T00:07:45;37.24;32.77;50.32;;
71805;Laerm;59654;52.216;5.616;2024-01-06T00:08:16;38.22;33.21;51.48;;
71805;Laerm;59654;52.216;5.616;2024-01-06T00:08:47;39.07;33.56;48.69;;
71805;Laerm;59654;52.216;5.616;2024-01-06T00:09:24;38.72;34.35;48.80;;
71805;Laerm;59654;52.216;5.616;2024-01-06T00:09:55;39.24;34.27;48.70;;
71805;Laerm;59654;52.216;5.616;2024-01-06T00:10:26;39.73;35.36;49.88;;
71805;Laerm;59654;52.216;5.616;2024-01-06T00:10:57;39.01;34.03;48.69;;
71805;Laerm;59654;52.216;5.616;2024-01-06T00:11:28;37.62;33.18;51.03;;
71805;Laerm;59654;52.216;5.616;2024-01-06T00:11:59;38.01;32.41;55.13;;
71805;Laerm;59654;52.216;5.616;2024-01-06T00:12:29;36.97;33.04;49.60;;
71805;Laerm;59654;52.216;5.616;2024-01-06T00:13:00;38.04;32.90;48.77;;
71805;Laerm;59654;52.216;5.616;2024-01-06T00:13:31;39.40;33.47;54.36;;
71805;Laerm;59654;52.216;5.616;2024-01-06T00:14:02;37.57;33.12;51.15;;
71805;Laerm;59654;52.216;5.616;2024-01-06T00:14:33;38.82;33.56;50.99;;
71805;Laerm;59654;52.216;5.616;2024-01-06T00:15:04;40.99;34.70;55.64;;
71805;Laerm;59654;52.216;5.616;2024-01-06T00:15:35;39.31;34.98;48.89;;
71805;Laerm;59654;52.216;5.616;2024-01-06T00:16:06;39.94;35.06;52.24;;
71805;Laerm;59654;52.216;5.616;2024-01-06T00:16:37;40.07;33.63;55.45;;
71805;Laerm;59654;52.216;5.616;2024-01-06T00:17:08;37.23;33.20;48.68;;
71805;Laerm;59654;52.216;5.616;2024-01-06T00:17:39;39.67;34.16;52.46;;
71805;Laerm;59654;52.216;5.616;2024-01-06T00:18:10;39.00;32.73;49.03;;
71805;Laerm;59654;52.216;5.616;2024-01-06T00:18:41;36.95;32.53;48.55;;
71805;Laerm;59654;52.216;5.616;2024-01-06T00:19:11;36.74;32.60;48.81;;
71805;Laerm;59654;52.216;5.616;2024-01-06T00:19:42;36.41;32.38;48.60;;
71805;Laerm;59654;52.216;5.616;2024-01-06T00:20:13;36.32;32.23;48.63;;
71805;Laerm;59654;52.216;5.616;2024-01-06T00:20:44;37.54;33.24;48.80;;
71805;Laerm;59654;52.216;5.616;2024-01-06T00:21:15;37.56;33.61;48.49;;
71805;Laerm;59654;52.216;5.616;2024-01-06T00:21:46;37.58;34.15;48.48;;
71805;Laerm;59654;52.216;5.616;2024-01-06T00:22:19;40.02;33.35;52.34;;
71805;Laerm;59654;52.216;5.616;2024-01-06T00:22:50;38.44;33.39;49.32;;
71805;Laerm;59654;52.216;5.616;2024-01-06T00:23:21;37.28;33.05;50.30;;
71805;Laerm;59654;52.216;5.616;2024-01-06T00:23:52;38.62;33.89;51.65;;
71805;Laerm;59654;52.216;5.616;2024-01-06T00:24:23;38.05;34.09;48.92;;
71805;Laerm;59654;52.216;5.616;2024-01-06T00:24:54;38.58;33.71;48.97;;
71805;Laerm;59654;52.216;5.616;2024-01-06T00:25:25;38.89;33.80;49.09;;
71805;Laerm;59654;52.216;5.616;2024-01-06T00:25:56;39.39;33.54;49.07;;
71805;Laerm;59654;52.216;5.616;2024-01-06T00:26:27;38.19;34.05;48.77;;
71805;Laerm;59654;52.216;5.616;2024-01-06T00:26:58;38.13;34.02;48.63;;
71805;Laerm;59654;52.216;5.616;2024-01-06T00:27:28;38.43;34.48;50.13;;
71805;Laerm;59654;52.216;5.616;2024-01-06T00:27:59;37.71;32.48;48.47;;
71805;Laerm;59654;52.216;5.616;2024-01-06T00:28:30;36.23;32.63;48.23;;
71805;Laerm;59654;52.216;5.616;2024-01-06T00:29:01;36.39;32.21;48.36;;
71805;Laerm;59654;52.216;5.616;2024-01-06T00:29:32;36.36;31.95;48.29;;
71805;Laerm;59654;52.216;5.616;2024-01-06T00:30:03;37.44;32.89;49.14;;
71805;Laerm;59654;52.216;5.616;2024-01-06T00:30:34;38.44;32.80;49.16;;
71805;Laerm;59654;52.216;5.616;2024-01-06T00:31:06;41.73;34.14;52.07;;
71805;Laerm;59654;52.216;5.616;2024-01-06T00:31:37;40.49;36.44;49.22;;
71805;Laerm;59654;52.216;5.616;2024-01-06T00:32:08;43.55;37.52;51.66;;
71805;Laerm;59654;52.216;5.616;2024-01-06T00:32:39;41.82;36.06;49.28;;
71805;Laerm;59654;52.216;5.616;2024-01-06T00:33:09;40.27;35.87;52.18;;
71805;Laerm;59654;52.216;5.616;2024-01-06T00:33:40;40.56;33.89;49.02;;
71805;Laerm;59654;52.216;5.616;2024-01-06T00:34:11;38.26;33.44;48.62;;
71805;Laerm;59654;52.216;5.616;2024-01-06T00:34:42;39.07;34.91;48.78;;
71805;Laerm;59654;52.216;5.616;2024-01-06T00:35:13;38.59;34.36;49.71;;
71805;Laerm;59654;52.216;5.616;2024-01-06T00:35:44;38.56;33.76;48.29;;
71805;Laerm;59654;52.216;5.616;2024-01-06T00:36:15;38.61;33.70;48.52;;
71805;Laerm;59654;52.216;5.616;2024-01-06T00:36:45;38.36;33.94;48.61;;
71805;Laerm;59654;52.216;5.616;2024-01-06T00:37:16;43.85;38.14;53.98;;
71805;Laerm;59654;52.216;5.616;2024-01-06T00:37:47;42.29;36.23;51.75;;
71805;Laerm;59654;52.216;5.616;2024-01-06T00:38:18;40.89;36.63;48.87;;
71805;Laerm;59654;52.216;5.616;2024-01-06T00:38:50;39.70;34.51;49.18;;
71805;Laerm;59654;52.216;5.616;2024-01-06T00:39:21;37.36;33.13;48.26;;
71805;Laerm;59654;52.216;5.616;2024-01-06T00:39:52;37.83;33.17;48.16;;
71805;Laerm;59654;52.216;5.616;2024-01-06T00:40:23;41.46;34.91;49.51;;
71805;Laerm;59654;52.216;5.616;2024-01-06T00:40:54;41.97;36.85;53.37;;
71805;Laerm;59654;52.216;5.616;2024-01-06T00:41:24;40.30;35.79;52.68;;
71805;Laerm;59654;52.216;5.616;2024-01-06T00:41:55;40.07;35.68;49.67;;
71805;Laerm;59654;52.216;5.616;2024-01-06T00:42:26;41.46;35.06;51.04;;
71805;Laerm;59654;52.216;5.616;2024-01-06T00:42:57;41.51;34.79;51.75;;
71805;Laerm;59654;52.216;5.616;2024-01-06T00:43:28;43.54;37.89;51.80;;
71805;Laerm;59654;52.216;5.616;2024-01-06T00:43:59;48.30;39.78;58.39;;
71805;Laerm;59654;52.216;5.616;2024-01-06T00:44:29;41.13;36.78;50.21;;
71805;Laerm;59654;52.216;5.616;2024-01-06T00:45:00;39.09;34.97;49.14;;
71805;Laerm;59654;52.216;5.616;2024-01-06T00:45:31;39.56;35.02;51.40;;
71805;Laerm;59654;52.216;5.616;2024-01-06T00:46:02;38.91;34.65;49.10;;
71805;Laerm;59654;52.216;5.616;2024-01-06T00:46:33;38.67;35.22;48.92;;
71805;Laerm;59654;52.216;5.616;2024-01-06T00:47:04;38.89;34.43;49.15;;
71805;Laerm;59654;52.216;5.616;2024-01-06T00:47:35;38.04;33.19;49.75;;
71805;Laerm;59654;52.216;5.616;2024-01-06T00:48:06;36.51;33.04;48.55;;
71805;Laerm;59654;52.216;5.616;2024-01-06T00:48:37;36.95;32.37;48.48;;
71805;Laerm;59654;52.216;5.616;2024-01-06T00:49:08;38.81;33.90;50.80;;
71805;Laerm;59654;52.216;5.616;2024-01-06T00:49:39;40.51;36.97;48.69;;
71805;Laerm;59654;52.216;5.616;2024-01-06T00:50:10;40.05;35.76;48.80;;
71805;Laerm;59654;52.216;5.616;2024-01-06T00:50:41;40.93;36.10;49.33;;
71805;Laerm;59654;52.216;5.616;2024-01-06T00:51:11;38.44;34.88;48.55;;
71805;Laerm;59654;52.216;5.616;2024-01-06T00:51:42;38.29;34.45;51.47;;
71805;Laerm;59654;52.216;5.616;2024-01-06T00:52:13;37.97;33.97;48.86;;
71805;Laerm;59654;52.216;5.616;2024-01-06T00:52:44;40.53;35.20;49.22;;
71805;Laerm;59654;52.216;5.616;2024-01-06T00:53:15;38.43;33.63;48.83;;
71805;Laerm;59654;52.216;5.616;2024-01-06T00:53:46;37.32;32.60;51.27;;
71805;Laerm;59654;52.216;5.616;2024-01-06T00:54:17;36.10;32.21;48.54;;
71805;Laerm;59654;52.216;5.616;2024-01-06T00:54:48;36.20;32.28;48.51;;
71805;Laerm;59654;52.216;5.616;2024-01-06T00:55:20;38.14;33.52;49.26;;
71805;Laerm;59654;52.216;5.616;2024-01-06T00:55:51;39.96;36.05;50.87;;
71805;Laerm;59654;52.216;5.616;2024-01-06T00:56:21;40.77;34.97;49.43;;
71805;Laerm;59654;52.216;5.616;2024-01-06T00:56:52;41.21;35.63;49.46;;
71805;Laerm;59654;52.216;5.616;2024-01-06T00:57:23;38.79;33.97;51.32;;
71805;Laerm;59654;52.216;5.616;2024-01-06T00:57:54;38.96;33.21;49.61;;
71805;Laerm;59654;52.216;5.616;2024-01-06T00:58:25;36.75;32.71;48.32;;
71805;Laerm;59654;52.216;5.616;2024-01-06T00:58:56;37.05;32.91;48.28;;
71805;Laerm;59654;52.216;5.616;2024-01-06T00:59:27;38.14;33.86;48.80;;
71805;Laerm;59654;52.216;5.616;2024-01-06T00:59:58;38.87;34.58;48.50;;
71805;Laerm;59654;52.216;5.616;2024-01-06T01:00:28;40.07;33.50;49.09;;
71805;Laerm;59654;52.216;5.616;2024-01-06T01:00:59;37.97;33.03;51.07;;
71805;Laerm;59654;52.216;5.616;2024-01-06T01:01:30;40.28;33.87;51.27;;
71805;Laerm;59654;52.216;5.616;2024-01-06T01:02:01;37.37;33.20;49.00;;
71805;Laerm;59654;52.216;5.616;2024-01-06T01:02:32;37.65;33.81;48.31;;
71805;Laerm;59654;52.216;5.616;2024-01-06T01:03:03;37.29;32.72;48.15;;
71805;Laerm;59654;52.216;5.616;2024-01-06T01:03:34;37.43;33.36;49.88;;
71805;Laerm;59654;52.216;5.616;2024-01-06T01:04:04;37.30;32.95;48.46;;
71805;Laerm;59654;52.216;5.616;2024-01-06T01:04:35;39.17;33.85;49.50;;
71805;Laerm;59654;52.216;5.616;2024-01-06T01:05:06;38.43;33.44;49.45;;
71805;Laerm;59654;52.216;5.616;2024-01-06T01:05:40;37.47;32.32;50.57;;
71805;Laerm;59654;52.216;5.616;2024-01-06T01:06:11;37.36;33.22;48.49;;
71805;Laerm;59654;52.216;5.616;2024-01-06T01:06:42;36.56;32.81;48.33;;
71805;Laerm;59654;52.216;5.616;2024-01-06T01:07:13;37.82;32.66;48.66;;
71805;Laerm;59654;52.216;5.616;2024-01-06T01:07:44;39.12;34.66;51.50;;
71805;Laerm;59654;52.216;5.616;2024-01-06T01:08:15;38.09;34.63;48.45;;
71805;Laerm;59654;52.216;5.616;2024-01-06T01:08:46;37.59;33.08;48.44;;
71805;Laerm;59654;52.216;5.616;2024-01-06T01:09:17;37.28;32.64;49.11;;
71805;Laerm;59654;52.216;5.616;2024-01-06T01:09:47;36.92;32.26;48.20;;
71805;Laerm;59654;52.216;5.616;2024-01-06T01:10:18;37.30;32.41;48.80;;
71805;Laerm;59654;52.216;5.616;2024-01-06T01:10:49;39.89;33.95;51.20;;
71805;Laerm;59654;52.216;5.616;2024-01-06T01:11:20;37.29;32.70;48.42;;
71805;Laerm;59654;52.216;5.616;2024-01-06T01:11:51;38.03;32.70;48.75;;
71805;Laerm;59654;52.216;5.616;2024-01-06T01:12:23;37.58;33.05;48.29;;
71805;Laerm;59654;52.216;5.616;2024-01-06T01:12:54;37.22;32.90;48.66;;
71805;Laerm;59654;52.216;5.616;2024-01-06T01:13:25;37.09;32.75;52.05;;
71805;Laerm;59654;52.216;5.616;2024-01-06T01:13:56;38.09;34.10;48.18;;
71805;Laerm;59654;52.216;5.616;2024-01-06T01:14:27;37.11;33.77;51.19;;
71805;Laerm;59654;52.216;5.616;2024-01-06T01:14:58;38.94;34.30;49.52;;
71805;Laerm;59654;52.216;5.616;2024-01-06T01:15:29;39.38;33.69;50.53;;
71805;Laerm;59654;52.216;5.616;2024-01-06T01:15:59;38.03;33.39;51.23;;
71805;Laerm;59654;52.216;5.616;2024-01-06T01:16:30;38.44;34.65;48.64;;
71805;Laerm;59654;52.216;5.616;2024-01-06T01:17:03;37.21;32.43;48.50;;
71805;Laerm;59654;52.216;5.616;2024-01-06T01:17:34;37.99;32.93;48.54;;
71805;Laerm;59654;52.216;5.616;2024-01-06T01:18:05;37.16;32.65;48.39;;
71805;Laerm;59654;52.216;5.616;2024-01-06T01:18:36;36.00;32.33;48.40;;
71805;Laerm;59654;52.216;5.616;2024-01-06T01:19:07;36.35;32.17;48.18;;
71805;Laerm;59654;52.216;5.616;2024-01-06T01:19:38;38.00;33.49;48.39;;
71805;Laerm;59654;52.216;5.616;2024-01-06T01:20:09;37.93;34.53;48.08;;
71805;Laerm;59654;52.216;5.616;2024-01-06T01:20:40;38.31;33.55;48.35;;
71805;Laerm;59654;52.216;5.616;2024-01-06T01:21:14;38.09;33.04;48.55;;
71805;Laerm;59654;52.216;5.616;2024-01-06T01:21:45;37.28;32.13;50.08;;
71805;Laerm;59654;52.216;5.616;2024-01-06T01:22:16;35.69;32.08;48.09;;
71805;Laerm;59654;52.216;5.616;2024-01-06T01:22:47;36.36;31.99;48.14;;
71805;Laerm;59654;52.216;5.616;2024-01-06T01:23:18;35.62;32.29;48.18;;
71805;Laerm;59654;52.216;5.616;2024-01-06T01:23:49;36.43;32.37;50.86;;
71805;Laerm;59654;52.216;5.616;2024-01-06T01:24:20;37.92;33.81;48.73;;
71805;Laerm;59654;52.216;5.616;2024-01-06T01:24:50;37.60;32.90;48.48;;
71805;Laerm;59654;52.216;5.616;2024-01-06T01:25:21;38.18;33.55;51.03;;
71805;Laerm;59654;52.216;5.616;2024-01-06T01:25:53;37.12;34.24;49.62;;
71805;Laerm;59654;52.216;5.616;2024-01-06T01:26:24;38.72;34.56;48.21;;
71805;Laerm;59654;52.216;5.616;2024-01-06T01:26:56;37.69;32.62;51.07;;
71805;Laerm;59654;52.216;5.616;2024-01-06T01:27:27;36.89;32.28;50.33;;
71805;Laerm;59654;52.216;5.616;2024-01-06T01:27:57;36.88;32.75;48.15;;
71805;Laerm;59654;52.216;5.616;2024-01-06T01:28:28;36.42;32.21;48.31;;
71805;Laerm;59654;52.216;5.616;2024-01-06T01:28:59;37.45;32.87;49.85;;
71805;Laerm;59654;52.216;5.616;2024-01-06T01:29:30;38.38;32.97;49.98;;
71805;Laerm;59654;52.216;5.616;2024-01-06T01:30:02;38.73;33.17;50.01;;
71805;Laerm;59654;52.216;5.616;2024-01-06T01:30:32;37.14;32.74;49.09;;
71805;Laerm;59654;52.216;5.616;2024-01-06T01:31:03;36.83;32.24;48.26;;
71805;Laerm;59654;52.216;5.616;2024-01-06T01:31:34;37.20;33.62;48.27;;
71805;Laerm;59654;52.216;5.616;2024-01-06T01:32:05;36.95;33.72;48.25;;
71805;Laerm;59654;52.216;5.616;2024-01-06T01:32:37;37.52;33.02;49.75;;
71805;Laerm;59654;52.216;5.616;2024-01-06T01:33:07;36.61;32.49;48.36;;
71805;Laerm;59654;52.216;5.616;2024-01-06T01:33:38;36.74;32.27;48.07;;
71805;Laerm;59654;52.216;5.616;2024-01-06T01:34:09;35.64;31.69;48.12;;
71805;Laerm;59654;52.216;5.616;2024-01-06T01:34:40;35.77;32.33;49.61;;
71805;Laerm;59654;52.216;5.616;2024-01-06T01:35:11;40.90;32.44;54.14;;
71805;Laerm;59654;52.216;5.616;2024-01-06T01:35:42;43.10;36.41;50.58;;
71805;Laerm;59654;52.216;5.616;2024-01-06T01:36:13;38.90;33.67;49.12;;
71805;Laerm;59654;52.216;5.616;2024-01-06T01:36:44;38.74;33.10;48.90;;
71805;Laerm;59654;52.216;5.616;2024-01-06T01:37:15;37.01;32.80;49.23;;
71805;Laerm;59654;52.216;5.616;2024-01-06T01:37:46;39.45;34.87;51.07;;
71805;Laerm;59654;52.216;5.616;2024-01-06T01:38:17;38.66;35.56;48.61;;
71805;Laerm;59654;52.216;5.616;2024-01-06T01:38:48;39.39;35.36;48.61;;
71805;Laerm;59654;52.216;5.616;2024-01-06T01:39:19;37.36;32.76;48.51;;
71805;Laerm;59654;52.216;5.616;2024-01-06T01:39:50;38.70;33.60;48.39;;
71805;Laerm;59654;52.216;5.616;2024-01-06T01:40:20;39.58;34.05;49.48;;
71805;Laerm;59654;52.216;5.616;2024-01-06T01:40:51;39.84;35.27;49.52;;
71805;Laerm;59654;52.216;5.616;2024-01-06T01:41:22;37.87;33.88;48.32;;
71805;Laerm;59654;52.216;5.616;2024-01-06T01:41:53;36.37;32.49;48.16;;
71805;Laerm;59654;52.216;5.616;2024-01-06T01:42:24;37.05;33.02;50.91;;
71805;Laerm;59654;52.216;5.616;2024-01-06T01:42:55;36.27;32.03;47.96;;
71805;Laerm;59654;52.216;5.616;2024-01-06T01:43:25;37.50;32.35;48.21;;
71805;Laerm;59654;52.216;5.616;2024-01-06T01:43:56;37.19;33.89;48.05;;
71805;Laerm;59654;52.216;5.616;2024-01-06T01:44:30;38.73;34.52;48.43;;
71805;Laerm;59654;52.216;5.616;2024-01-06T01:45:01;37.88;32.83;48.08;;
71805;Laerm;59654;52.216;5.616;2024-01-06T01:45:32;36.48;32.40;50.77;;
71805;Laerm;59654;52.216;5.616;2024-01-06T01:46:03;35.98;31.95;49.13;;
71805;Laerm;59654;52.216;5.616;2024-01-06T01:46:35;36.52;31.81;47.94;;
71805;Laerm;59654;52.216;5.616;2024-01-06T01:47:07;36.13;32.07;48.03;;
71805;Laerm;59654;52.216;5.616;2024-01-06T01:47:38;36.28;31.96;51.03;;
71805;Laerm;59654;52.216;5.616;2024-01-06T01:48:10;36.48;31.65;48.51;;
71805;Laerm;59654;52.216;5.616;2024-01-06T01:48:41;37.21;32.21;48.33;;
71805;Laerm;59654;52.216;5.616;2024-01-06T01:49:12;37.08;32.65;50.80;;
71805;Laerm;59654;52.216;5.616;2024-01-06T01:49:42;37.03;32.33;48.47;;
71805;Laerm;59654;52.216;5.616;2024-01-06T01:50:14;37.15;32.82;48.13;;
71805;Laerm;59654;52.216;5.616;2024-01-06T01:50:45;37.27;32.72;48.19;;
71805;Laerm;59654;52.216;5.616;2024-01-06T01:51:18;37.99;32.92;50.89;;
71805;Laerm;59654;52.216;5.616;2024-01-06T01:51:50;38.55;34.49;48.17;;
71805;Laerm;59654;52.216;5.616;2024-01-06T01:52:22;38.48;34.16;50.80;;
71805;Laerm;59654;52.216;5.616;2024-01-06T01:52:54;37.41;33.31;48.26;;
71805;Laerm;59654;52.216;5.616;2024-01-06T01:53:26;38.41;33.58;48.36;;
71805;Laerm;59654;52.216;5.616;2024-01-06T01:54:01;38.44;33.47;48.37;;
71805;Laerm;59654;52.216;5.616;2024-01-06T01:54:32;37.41;33.09;48.20;;
71805;Laerm;59654;52.216;5.616;2024-01-06T01:55:04;36.87;32.53;48.21;;
71805;Laerm;59654;52.216;5.616;2024-01-06T01:55:35;36.48;32.53;50.46;;
71805;Laerm;59654;52.216;5.616;2024-01-06T01:56:06;36.92;33.06;48.13;;
71805;Laerm;59654;52.216;5.616;2024-01-06T01:56:39;37.43;32.78;48.03;;
71805;Laerm;59654;52.216;5.616;2024-01-06T01:57:14;37.97;34.10;48.34;;
71805;Laerm;59654;52.216;5.616;2024-01-06T01:57:46;39.16;34.84;48.36;;
71805;Laerm;59654;52.216;5.616;2024-01-06T01:58:17;38.18;34.38;48.87;;
71805;Laerm;59654;52.216;5.616;2024-01-06T01:58:48;39.81;35.10;50.88;;
71805;Laerm;59654;52.216;5.616;2024-01-06T01:59:20;39.58;33.61;52.17;;
71805;Laerm;59654;52.216;5.616;2024-01-06T01:59:52;36.27;32.39;48.06;;
71805;Laerm;59654;52.216;5.616;2024-01-06T02:00:24;37.45;33.18;48.16;;
71805;Laerm;59654;52.216;5.616;2024-01-06T02:00:55;37.33;32.66;48.78;;
71805;Laerm;59654;52.216;5.616;2024-01-06T02:01:26;36.67;32.19;48.00;;
71805;Laerm;59654;52.216;5.616;2024-01-06T02:01:57;37.43;33.27;48.11;;
71805;Laerm;59654;52.216;5.616;2024-01-06T02:02:28;36.83;32.70;47.97;;
71805;Laerm;59654;52.216;5.616;2024-01-06T02:02:59;36.42;32.34;48.00;;
71805;Laerm;59654;52.216;5.616;2024-01-06T02:03:32;37.27;32.92;48.10;;
71805;Laerm;59654;52.216;5.616;2024-01-06T02:04:04;38.54;34.33;48.15;;
71805;Laerm;59654;52.216;5.616;2024-01-06T02:04:35;38.46;34.58;48.30;;
71805;Laerm;59654;52.216;5.616;2024-01-06T02:05:06;37.29;32.84;48.78;;
71805;Laerm;59654;52.216;5.616;2024-01-06T02:05:37;36.08;32.61;49.06;;
71805;Laerm;59654;52.216;5.616;2024-01-06T02:06:08;36.75;32.40;50.93;;
71805;Laerm;59654;52.216;5.616;2024-01-06T02:06:39;36.37;32.37;50.40;;
71805;Laerm;59654;52.216;5.616;2024-01-06T02:07:10;36.53;32.49;48.05;;
71805;Laerm;59654;52.216;5.616;2024-01-06T02:07:40;37.56;32.53;47.94;;
71805;Laerm;59654;52.216;5.616;2024-01-06T02:08:11;35.51;32.06;50.98;;
71805;Laerm;59654;52.216;5.616;2024-01-06T02:08:42;35.57;31.66;47.83;;
71805;Laerm;59654;52.216;5.616;2024-01-06T02:09:13;36.91;31.83;49.76;;
71805;Laerm;59654;52.216;5.616;2024-01-06T02:09:44;37.49;32.37;48.08;;
71805;Laerm;59654;52.216;5.616;2024-01-06T02:10:15;36.78;33.00;47.95;;
71805;Laerm;59654;52.216;5.616;2024-01-06T02:10:46;36.84;33.27;50.33;;
71805;Laerm;59654;52.216;5.616;2024-01-06T02:11:17;36.34;32.06;47.99;;
71805;Laerm;59654;52.216;5.616;2024-01-06T02:11:47;35.89;31.95;50.79;;
71805;Laerm;59654;52.216;5.616;2024-01-06T02:12:18;35.60;31.87;47.98;;
71805;Laerm;59654;52.216;5.616;2024-01-06T02:12:49;35.95;31.78;47.78;;
71805;Laerm;59654;52.216;5.616;2024-01-06T02:13:23;35.64;31.63;47.85;;
71805;Laerm;59654;52.216;5.616;2024-01-06T02:13:54;35.90;31.90;48.09;;
71805;Laerm;59654;52.216;5.616;2024-01-06T02:14:25;35.48;31.71;48.18;;
71805;Laerm;59654;52.216;5.616;2024-01-06T02:14:56;36.24;31.77;48.19;;
71805;Laerm;59654;52.216;5.616;2024-01-06T02:15:27;36.09;32.15;47.98;;
71805;Laerm;59654;52.216;5.616;2024-01-06T02:15:57;36.77;33.49;48.05;;
71805;Laerm;59654;52.216;5.616;2024-01-06T02:16:28;37.14;33.69;50.68;;
71805;Laerm;59654;52.216;5.616;2024-01-06T02:16:59;36.90;31.90;50.57;;
71805;Laerm;59654;52.216;5.616;2024-01-06T02:17:30;35.22;31.35;47.83;;
71805;Laerm;59654;52.216;5.616;2024-01-06T02:18:01;35.57;31.80;48.00;;
71805;Laerm;59654;52.216;5.616;2024-01-06T02:18:32;36.42;31.99;48.04;;
71805;Laerm;59654;52.216;5.616;2024-01-06T02:19:05;36.48;32.34;50.22;;
71805;Laerm;59654;52.216;5.616;2024-01-06T02:19:38;35.88;31.84;47.86;;
71805;Laerm;59654;52.216;5.616;2024-01-06T02:20:09;35.99;31.19;50.58;;
71805;Laerm;59654;52.216;5.616;2024-01-06T02:20:46;35.76;31.76;47.91;;
71805;Laerm;59654;52.216;5.616;2024-01-06T02:21:21;38.38;33.68;51.69;;
71805;Laerm;59654;52.216;5.616;2024-01-06T02:21:54;37.92;34.46;49.35;;
71805;Laerm;59654;52.216;5.616;2024-01-06T02:22:25;38.15;33.94;48.52;;
71805;Laerm;59654;52.216;5.616;2024-01-06T02:22:56;37.43;32.86;50.02;;
71805;Laerm;59654;52.216;5.616;2024-01-06T02:23:29;37.09;32.97;48.23;;
71805;Laerm;59654;52.216;5.616;2024-01-06T02:24:00;38.57;34.01;48.39;;
71805;Laerm;59654;52.216;5.616;2024-01-06T02:24:31;37.64;33.28;47.86;;
71805;Laerm;59654;52.216;5.616;2024-01-06T02:25:04;37.53;32.98;48.05;;
71805;Laerm;59654;52.216;5.616;2024-01-06T02:25:38;38.63;33.33;51.07;;
71805;Laerm;59654;52.216;5.616;2024-01-06T02:26:10;36.24;32.32;49.61;;
71805;Laerm;59654;52.216;5.616;2024-01-06T02:26:41;36.29;32.04;47.68;;
71805;Laerm;59654;52.216;5.616;2024-01-06T02:27:14;38.01;33.81;47.95;;
71805;Laerm;59654;52.216;5.616;2024-01-06T02:27:45;37.75;33.59;47.62;;
71805;Laerm;59654;52.216;5.616;2024-01-06T02:28:15;37.37;34.06;47.48;;
71805;Laerm;59654;52.216;5.616;2024-01-06T02:28:46;36.61;32.36;47.40;;
71805;Laerm;59654;52.216;5.616;2024-01-06T02:29:18;36.28;32.13;49.69;;
71805;Laerm;59654;52.216;5.616;2024-01-06T02:29:49;36.55;32.07;47.34;;
71805;Laerm;59654;52.216;5.616;2024-01-06T02:30:20;35.71;31.98;47.29;;
71805;Laerm;59654;52.216;5.616;2024-01-06T02:30:51;36.39;32.60;47.26;;
71805;Laerm;59654;52.216;5.616;2024-01-06T02:31:22;39.15;32.90;52.54;;
71805;Laerm;59654;52.216;5.616;2024-01-06T02:31:52;46.64;34.40;53.60;;
71805;Laerm;59654;52.216;5.616;2024-01-06T02:32:23;48.47;37.90;59.37;;
71805;Laerm;59654;52.216;5.616;2024-01-06T02:32:54;46.24;35.66;58.35;;
71805;Laerm;59654;52.216;5.616;2024-01-06T02:33:25;37.75;33.61;47.55;;
71805;Laerm;59654;52.216;5.616;2024-01-06T02:33:56;36.99;33.66;47.38;;
71805;Laerm;59654;52.216;5.616;2024-01-06T02:34:26;37.12;33.58;47.29;;
71805;Laerm;59654;52.216;5.616;2024-01-06T02:34:57;36.01;31.99;47.35;;
71805;Laerm;59654;52.216;5.616;2024-01-06T02:35:28;35.08;31.87;47.29;;
71805;Laerm;59654;52.216;5.616;2024-01-06T02:35:59;35.91;31.62;48.40;;
71805;Laerm;59654;52.216;5.616;2024-01-06T02:36:30;36.43;32.19;47.50;;
71805;Laerm;59654;52.216;5.616;2024-01-06T02:37:01;35.59;31.81;47.23;;
71805;Laerm;59654;52.216;5.616;2024-01-06T02:37:32;36.21;32.27;47.35;;
71805;Laerm;59654;52.216;5.616;2024-01-06T02:38:03;35.81;32.02;47.25;;
71805;Laerm;59654;52.216;5.616;2024-01-06T02:38:34;35.95;32.08;47.40;;
71805;Laerm;59654;52.216;5.616;2024-01-06T02:39:05;35.88;31.99;47.37;;
71805;Laerm;59654;52.216;5.616;2024-01-06T02:39:36;39.18;33.62;52.31;;
71805;Laerm;59654;52.216;5.616;2024-01-06T02:40:07;38.61;33.36;52.13;;
71805;Laerm;59654;52.216;5.616;2024-01-06T02:40:38;39.50;34.52;52.10;;
71805;Laerm;59654;52.216;5.616;2024-01-06T02:41:09;39.33;33.35;55.30;;
71805;Laerm;59654;52.216;5.616;2024-01-06T02:41:40;38.47;32.05;52.28;;
71805;Laerm;59654;52.216;5.616;2024-01-06T02:42:11;39.22;32.40;52.48;;
71805;Laerm;59654;52.216;5.616;2024-01-06T02:42:42;37.18;31.82;51.66;;
71805;Laerm;59654;52.216;5.616;2024-01-06T02:43:13;37.74;31.75;51.69;;
71805;Laerm;59654;52.216;5.616;2024-01-06T02:43:44;38.29;32.06;54.34;;
71805;Laerm;59654;52.216;5.616;2024-01-06T02:44:15;38.08;32.24;51.77;;
71805;Laerm;59654;52.216;5.616;2024-01-06T02:44:46;39.25;32.81;53.65;;
71805;Laerm;59654;52.216;5.616;2024-01-06T02:45:17;38.43;32.08;52.10;;
71805;Laerm;59654;52.216;5.616;2024-01-06T02:45:47;38.84;32.83;52.22;;
71805;Laerm;59654;52.216;5.616;2024-01-06T02:46:18;39.49;33.53;52.29;;
71805;Laerm;59654;52.216;5.616;2024-01-06T02:46:49;41.55;33.22;54.26;;
71805;Laerm;59654;52.216;5.616;2024-01-06T02:47:20;38.63;32.31;51.76;;
71805;Laerm;59654;52.216;5.616;2024-01-06T02:47:51;38.69;32.55;51.67;;
71805;Laerm;59654;52.216;5.616;2024-01-06T02:48:22;38.25;31.86;51.70;;
71805;Laerm;59654;52.216;5.616;2024-01-06T02:48:52;37.68;31.91;51.64;;
71805;Laerm;59654;52.216;5.616;2024-01-06T02:49:23;38.09;32.41;51.52;;
71805;Laerm;59654;52.216;5.616;2024-01-06T02:49:54;38.86;32.53;51.87;;
71805;Laerm;59654;52.216;5.616;2024-01-06T02:50:25;37.58;32.19;51.72;;
71805;Laerm;59654;52.216;5.616;2024-01-06T02:50:58;37.76;32.59;51.57;;
71805;Laerm;59654;52.216;5.616;2024-01-06T02:51:29;39.58;33.06;54.58;;
71805;Laerm;59654;52.216;5.616;2024-01-06T02:52:00;40.47;34.14;54.76;;
71805;Laerm;59654;52.216;5.616;2024-01-06T02:52:31;38.91;34.15;52.12;;
71805;Laerm;59654;52.216;5.616;2024-01-06T02:53:03;37.81;32.93;51.88;;
71805;Laerm;59654;52.216;5.616;2024-01-06T02:53:34;38.55;32.17;53.11;;
71805;Laerm;59654;52.216;5.616;2024-01-06T02:54:04;38.10;32.15;52.26;;
71805;Laerm;59654;52.216;5.616;2024-01-06T02:54:35;37.40;32.62;51.40;;